Time;durP1;ratioP1;P1;durP2;ratioP2;P2;SDS_P1;SDS_P2;PMS_P1;PMS_P2;Temp;Humidity;BMP_temperature;BMP_pressure;BME280_temperature;BME280_humidity;BME280_pressure;Samples;Min_cycle;Max_cycle;Signal;HPM_P1;HPM_P2
2021/10/28 00:14:06;;;;;;;12.63;4.22;;;13.30;99.90;;;;;;5112621;28;20403;-89
2021/10/28 00:16:34;;;;;;;17.85;4.47;;;13.30;99.90;;;;;;5105706;28;20043;-89
2021/10/28 00:19:09;;;;;;;18.85;5.05;;;13.30;99.90;;;;;;5103561;28;20047;-87
2021/10/28 00:21:38;;;;;;;11.45;5.30;;;13.30;99.90;;;;;;5113952;28;20055;-87
2021/10/28 00:24:10;;;;;;;12.82;6.10;;;13.30;99.90;;;;;;5114921;28;20062;-87
2021/10/28 00:26:41;;;;;;;9.52;4.22;;;13.20;99.90;;;;;;5090707;28;20059;-88
2021/10/28 00:29:16;;;;;;;18.55;5.70;;;12.50;99.90;;;;;;5094887;28;20048;-85
2021/10/28 00:31:46;;;;;;;20.63;5.63;;;13.20;99.90;;;;;;5103942;28;20041;-88
2021/10/28 00:34:16;;;;;;;18.67;4.78;;;13.20;99.90;;;;;;5114707;28;20043;-87
2021/10/28 00:36:48;;;;;;;16.33;5.15;;;13.20;99.90;;;;;;5065012;28;20059;-88
2021/10/28 00:39:16;;;;;;;17.60;6.00;;;13.20;99.90;;;;;;5094943;28;20044;-85
2021/10/28 00:41:45;;;;;;;12.93;5.15;;;13.20;99.90;;;;;;5092353;28;20407;-87
2021/10/28 00:44:13;;;;;;;19.05;5.13;;;13.10;99.90;;;;;;5069453;28;20059;-87
2021/10/28 00:46:42;;;;;;;16.15;4.85;;;13.10;99.90;;;;;;5102652;28;20194;-89
2021/10/28 00:49:11;;;;;;;22.98;4.82;;;13.10;99.90;;;;;;5103595;28;20060;-89
2021/10/28 00:51:41;;;;;;;19.17;4.85;;;13.10;99.90;;;;;;5104700;28;20056;-84
2021/10/28 00:54:21;;;;;;;18.33;4.15;;;13.00;99.90;;;;;;5082281;28;20066;-86
2021/10/28 00:56:50;;;;;;;8.65;4.47;;;13.00;99.90;;;;;;5093130;28;20036;-84
2021/10/28 00:59:18;;;;;;;22.00;6.63;;;13.00;99.90;;;;;;5119704;28;20040;-87
2021/10/28 01:01:47;;;;;;;12.98;5.10;;;13.00;99.90;;;;;;5116276;28;20062;-86
2021/10/28 01:04:15;;;;;;;24.10;5.85;;;13.00;99.90;;;;;;5105261;28;20048;-86
2021/10/28 01:06:44;;;;;;;25.15;5.05;;;13.00;99.90;;;;;;5116743;28;20051;-87
2021/10/28 01:09:13;;;;;;;23.75;6.47;;;13.00;99.90;;;;;;5111528;28;20047;-88
2021/10/28 01:11:41;;;;;;;14.88;6.38;;;13.00;99.90;;;;;;5113034;28;20050;-85
2021/10/28 01:14:09;;;;;;;13.02;5.18;;;13.00;99.90;;;;;;5107843;28;20395;-87
2021/10/28 01:16:36;;;;;;;13.32;4.40;;;13.00;99.90;;;;;;5111378;28;20052;-86
2021/10/28 01:19:12;;;;;;;14.00;5.72;;;12.40;99.90;;;;;;5096379;28;20063;-85
2021/10/28 01:21:40;;;;;;;12.80;5.47;;;13.10;99.90;;;;;;5105834;28;20048;-86
2021/10/28 01:24:08;;;;;;;8.75;3.78;;;13.10;99.90;;;;;;5109245;28;20486;-88
2021/10/28 01:26:36;;;;;;;18.33;4.32;;;13.10;99.90;;;;;;5103207;28;20490;-84
2021/10/28 01:29:08;;;;;;;19.45;6.10;;;13.20;99.90;;;;;;5086336;28;20047;-86
2021/10/28 01:31:36;;;;;;;14.68;4.50;;;13.10;99.90;;;;;;5109700;28;20051;-89
2021/10/28 01:34:05;;;;;;;16.05;4.97;;;13.10;99.90;;;;;;5107804;28;20276;-87
2021/10/28 01:36:34;;;;;;;23.00;5.47;;;13.10;99.90;;;;;;5107766;28;20043;-88
2021/10/28 01:39:23;;;;;;;21.30;4.97;;;13.10;99.90;;;;;;5115743;28;20054;-85
2021/10/28 01:41:55;;;;;;;16.30;8.35;;;13.10;99.90;;;;;;5112375;28;20047;-87
2021/10/28 01:44:27;;;;;;;16.45;5.07;;;13.10;99.90;;;;;;5110086;28;20409;-89
2021/10/28 01:46:55;;;;;;;17.95;5.10;;;13.10;99.90;;;;;;5119082;28;20059;-89
2021/10/28 01:49:24;;;;;;;15.32;4.65;;;13.10;99.90;;;;;;5097248;28;20052;-88
2021/10/28 01:51:54;;;;;;;16.00;5.03;;;13.10;99.90;;;;;;5085466;28;20483;-88
2021/10/28 01:54:23;;;;;;;17.98;4.88;;;13.10;99.90;;;;;;5099104;28;20058;-88
2021/10/28 01:56:52;;;;;;;13.70;4.70;;;13.10;99.90;;;;;;5099352;28;20047;-89
2021/10/28 01:59:20;;;;;;;10.80;4.30;;;13.10;99.90;;;;;;5087053;28;20048;-88
2021/10/28 02:01:48;;;;;;;11.48;4.80;;;13.00;99.90;;;;;;5096263;28;20052;-88
2021/10/28 02:04:17;;;;;;;10.40;4.93;;;13.00;99.90;;;;;;5103383;28;20044;-88
2021/10/28 02:06:44;;;;;;;13.82;5.43;;;13.00;99.90;;;;;;5092364;28;20048;-89
2021/10/28 02:09:12;;;;;;;23.48;5.75;;;13.00;99.90;;;;;;5091542;28;20062;-88
2021/10/28 02:11:40;;;;;;;18.48;6.20;;;13.00;99.90;;;;;;5091798;28;20408;-88
2021/10/28 02:14:08;;;;;;;18.17;5.50;;;12.90;99.90;;;;;;5109281;28;20055;-87
2021/10/28 02:16:36;;;;;;;19.05;6.60;;;12.90;99.90;;;;;;5098920;28;20055;-87
2021/10/28 02:19:05;;;;;;;20.30;5.93;;;12.90;99.90;;;;;;5103403;28;20055;-87
2021/10/28 02:21:32;;;;;;;15.20;6.00;;;12.90;99.90;;;;;;5093315;28;20040;-89
2021/10/28 02:24:00;;;;;;;11.13;5.85;;;12.90;99.90;;;;;;5091347;28;20044;-88
2021/10/28 02:26:28;;;;;;;17.77;5.63;;;12.80;99.90;;;;;;5095857;28;20036;-89
2021/10/28 02:28:57;;;;;;;17.00;6.53;;;12.80;99.90;;;;;;5086257;28;20059;-88
2021/10/28 02:31:25;;;;;;;18.33;7.30;;;12.80;99.90;;;;;;5096227;28;20059;-85
2021/10/28 02:33:54;;;;;;;21.73;8.98;;;12.70;99.90;;;;;;5099770;28;20051;-88
2021/10/28 02:36:21;;;;;;;16.00;5.82;;;12.70;99.90;;;;;;5105614;28;20040;-88
2021/10/28 02:38:49;;;;;;;25.95;6.88;;;12.70;99.90;;;;;;5098575;28;20044;-89
2021/10/28 02:41:17;;;;;;;17.75;7.90;;;12.70;99.90;;;;;;5076762;28;20055;-89
2021/10/28 02:43:45;;;;;;;18.48;6.75;;;12.70;99.90;;;;;;5106183;27;20055;-89
2021/10/28 02:46:13;;;;;;;23.77;8.25;;;12.70;99.90;;;;;;5091415;28;20051;-86
2021/10/28 02:48:42;;;;;;;21.95;9.80;;;12.70;99.90;;;;;;5087245;28;20406;-88
2021/10/28 02:51:09;;;;;;;24.25;9.05;;;12.70;99.90;;;;;;5100960;28;20043;-89
2021/10/28 02:53:37;;;;;;;20.77;8.23;;;12.70;99.90;;;;;;5090991;28;20040;-87
2021/10/28 02:56:05;;;;;;;16.48;7.72;;;12.70;99.90;;;;;;5092118;28;20059;-89
2021/10/28 02:58:32;;;;;;;22.02;8.48;;;12.70;99.90;;;;;;5092419;28;20048;-89
2021/10/28 03:01:00;;;;;;;21.80;7.85;;;12.60;99.90;;;;;;5092270;28;20087;-89
2021/10/28 03:03:28;;;;;;;20.02;6.97;;;12.60;99.90;;;;;;5096903;28;20043;-89
2021/10/28 03:05:57;;;;;;;21.17;9.45;;;12.60;99.90;;;;;;5094019;28;20044;-87
2021/10/28 03:08:24;;;;;;;20.60;8.68;;;12.50;99.90;;;;;;5093430;28;20044;-87
2021/10/28 03:10:52;;;;;;;24.48;8.95;;;12.50;99.90;;;;;;5080415;28;20051;-89
2021/10/28 03:13:20;;;;;;;17.42;7.90;;;12.50;99.90;;;;;;5093939;28;20055;-88
2021/10/28 03:15:50;;;;;;;20.13;8.73;;;12.40;99.90;;;;;;5115580;27;20412;-87
2021/10/28 03:26:31;;;;;;;23.13;8.18;;;12.40;99.90;;;;;;5099113;28;20060;-89
2021/10/28 03:28:59;;;;;;;23.27;8.45;;;12.40;99.90;;;;;;5103572;28;20044;-87
2021/10/28 03:31:27;;;;;;;14.75;7.68;;;12.40;99.90;;;;;;5088831;28;20047;-86
2021/10/28 03:33:55;;;;;;;20.70;9.30;;;12.40;99.90;;;;;;5108868;28;20048;-87
2021/10/28 03:36:36;;;;;;;18.08;7.50;;;12.40;99.90;;;;;;5114636;28;20490;-87
2021/10/28 03:39:22;;;;;;;12.07;5.93;;;12.40;99.90;;;;;;5111742;28;20202;-87
2021/10/28 03:47:28;;;;;;;19.88;6.30;;;12.30;99.90;;;;;;5097543;28;20510;-86
2021/10/28 04:29:45;;;;;;;19.50;7.88;;;11.50;99.90;;;;;;5111328;28;20052;-84
2021/10/28 04:32:13;;;;;;;15.43;7.28;;;12.20;99.90;;;;;;5099404;28;20281;-87
2021/10/28 04:34:43;;;;;;;24.48;9.15;;;12.20;99.90;;;;;;5109104;28;20048;-85
2021/10/28 04:37:10;;;;;;;17.42;5.97;;;12.20;99.90;;;;;;5113618;28;20052;-87
2021/10/28 04:39:38;;;;;;;24.58;6.20;;;12.20;99.90;;;;;;5113291;28;20050;-85
2021/10/28 04:42:06;;;;;;;17.70;7.28;;;12.20;99.90;;;;;;5105489;28;20067;-85
2021/10/28 04:44:34;;;;;;;19.48;5.35;;;12.10;99.90;;;;;;5107023;28;20543;-86
2021/10/28 04:47:02;;;;;;;22.92;7.47;;;12.10;99.90;;;;;;5100146;28;20097;-85
2021/10/28 04:49:32;;;;;;;18.88;6.93;;;12.10;99.90;;;;;;5095676;28;20494;-88
2021/10/28 04:52:00;;;;;;;17.77;6.82;;;12.10;99.90;;;;;;5101402;28;20054;-88
2021/10/28 04:54:28;;;;;;;15.68;6.53;;;12.10;99.90;;;;;;5108126;27;20074;-85
2021/10/28 04:56:55;;;;;;;12.25;6.10;;;12.20;99.90;;;;;;5091301;28;20039;-85
2021/10/28 04:59:23;;;;;;;17.80;5.38;;;12.20;99.90;;;;;;5091121;28;20036;-85
2021/10/28 05:01:51;;;;;;;18.33;6.15;;;12.20;99.90;;;;;;5108476;28;20051;-85
2021/10/28 05:04:19;;;;;;;14.68;7.32;;;12.20;99.90;;;;;;5108658;28;20052;-84
2021/10/28 05:06:47;;;;;;;22.10;6.63;;;12.20;99.90;;;;;;5106700;28;20374;-85
2021/10/28 05:09:23;;;;;;;12.73;5.65;;;12.20;99.90;;;;;;5094646;28;20054;-85
2021/10/28 05:11:51;;;;;;;22.30;6.65;;;12.20;99.90;;;;;;5095508;28;20052;-89
2021/10/28 05:14:18;;;;;;;16.80;6.68;;;12.30;99.90;;;;;;5098064;28;20058;-86
2021/10/28 05:16:46;;;;;;;18.23;6.53;;;12.20;99.90;;;;;;5111988;28;20051;-87
2021/10/28 05:19:14;;;;;;;18.88;6.30;;;12.30;99.90;;;;;;5084376;28;20040;-86
2021/10/28 05:21:42;;;;;;;27.77;7.35;;;12.30;99.90;;;;;;5090580;28;20142;-86
2021/10/28 05:24:11;;;;;;;16.20;6.82;;;12.30;99.90;;;;;;5092155;28;20051;-86
2021/10/28 05:26:39;;;;;;;23.30;7.43;;;12.30;99.90;;;;;;5090933;28;20051;-87
2021/10/28 05:29:07;;;;;;;20.05;6.25;;;12.30;99.90;;;;;;5090882;28;20406;-85
2021/10/28 05:31:35;;;;;;;13.57;6.03;;;12.30;99.90;;;;;;5091504;28;20044;-89
2021/10/28 05:34:03;;;;;;;16.42;6.30;;;12.20;99.90;;;;;;5096029;28;20059;-87
2021/10/28 05:36:30;;;;;;;16.40;7.07;;;12.20;99.90;;;;;;5105695;28;20075;-89
2021/10/28 05:38:58;;;;;;;20.88;7.20;;;12.20;99.90;;;;;;5100705;28;20051;-87
2021/10/28 05:41:27;;;;;;;17.13;7.95;;;12.10;99.90;;;;;;5088379;28;20052;-87
2021/10/28 05:43:56;;;;;;;24.55;7.18;;;12.10;99.90;;;;;;5090614;28;20048;-88
2021/10/28 05:46:24;;;;;;;21.60;6.95;;;12.10;99.90;;;;;;5097378;28;20122;-86
2021/10/28 05:48:52;;;;;;;18.95;6.13;;;12.10;99.90;;;;;;5105629;28;20051;-87
2021/10/28 05:51:19;;;;;;;18.30;7.47;;;12.10;99.90;;;;;;5102681;28;20043;-86
2021/10/28 05:53:49;;;;;;;16.35;5.68;;;12.10;99.90;;;;;;5104463;28;20043;-86
2021/10/28 05:56:17;;;;;;;23.23;8.02;;;12.10;99.90;;;;;;5121067;28;20388;-86
2021/10/28 05:58:45;;;;;;;15.98;6.43;;;12.10;99.90;;;;;;5107723;28;20094;-87
2021/10/28 06:01:12;;;;;;;20.75;8.43;;;12.10;99.90;;;;;;5110972;28;20060;-85
2021/10/28 06:03:40;;;;;;;20.13;6.97;;;12.10;99.90;;;;;;5103760;28;20056;-87
2021/10/28 06:06:08;;;;;;;19.05;7.35;;;12.10;99.90;;;;;;5124263;27;20044;-90
2021/10/28 06:08:36;;;;;;;19.10;8.18;;;12.10;99.90;;;;;;5099219;28;20048;-89
2021/10/28 06:11:04;;;;;;;16.17;7.60;;;12.10;99.90;;;;;;5101906;28;20048;-88
2021/10/28 06:13:34;;;;;;;19.17;5.97;;;12.20;99.90;;;;;;5097797;28;20048;-88
2021/10/28 06:16:02;;;;;;;19.58;8.02;;;12.20;99.90;;;;;;5092942;28;20052;-89
2021/10/28 06:20:58;;;;;;;13.75;6.13;;;12.10;99.90;;;;;;5096267;28;20048;-90
2021/10/28 06:23:26;;;;;;;24.60;6.40;;;12.10;99.90;;;;;;5112008;28;20051;-89
2021/10/28 06:25:54;;;;;;;17.25;6.68;;;12.10;99.90;;;;;;5086083;28;20142;-88
2021/10/28 06:28:21;;;;;;;11.60;5.65;;;12.10;99.90;;;;;;5102714;28;20047;-88
2021/10/28 06:30:49;;;;;;;18.88;6.78;;;12.10;99.90;;;;;;5088036;28;20063;-86
2021/10/28 06:33:23;;;;;;;17.30;5.90;;;12.10;99.90;;;;;;5103287;28;20035;-87
2021/10/28 06:35:51;;;;;;;27.88;6.70;;;12.10;99.90;;;;;;5103126;28;20498;-86
2021/10/28 06:38:20;;;;;;;21.27;6.43;;;12.10;99.90;;;;;;5094178;28;20051;-88
2021/10/28 06:40:48;;;;;;;28.10;7.15;;;12.10;99.90;;;;;;5111813;28;20051;-87
2021/10/28 06:43:15;;;;;;;17.88;5.15;;;12.10;99.90;;;;;;5102999;28;20047;-86
2021/10/28 06:45:43;;;;;;;14.88;5.57;;;12.10;99.90;;;;;;5110735;28;20074;-86
2021/10/28 06:48:13;;;;;;;10.85;5.53;;;12.10;99.90;;;;;;5106716;28;20050;-86
2021/10/28 06:50:46;;;;;;;16.13;6.78;;;12.10;99.90;;;;;;5096509;28;20040;-87
2021/10/28 06:53:29;;;;;;;19.30;6.20;;;12.10;99.90;;;;;;5092058;28;20044;-86
2021/10/28 07:04:13;;;;;;;15.07;5.32;;;12.10;99.90;;;;;;5106011;28;20051;-88
2021/10/28 07:06:41;;;;;;;;;;;12.10;99.90;;;;;;5106927;28;20048;-87
2021/10/28 07:09:32;;;;;;;12.43;4.63;;;12.20;99.90;;;;;;5076817;28;19935;-87
2021/10/28 07:14:39;;;;;;;13.70;5.13;;;12.10;99.90;;;;;;5106245;28;20054;-87
2021/10/28 08:06:16;;;;;;;21.02;7.68;;;12.60;99.90;;;;;;5092555;28;20066;-90
2021/10/28 08:17:37;;;;;;;13.05;4.40;;;12.70;99.90;;;;;;5121666;28;20027;-88
2021/10/28 08:20:17;;;;;;;14.18;4.75;;;12.90;99.90;;;;;;5126861;28;20049;-88
2021/10/28 08:23:00;;;;;;;16.50;5.00;;;12.80;99.90;;;;;;5118840;28;20044;-90
2021/10/28 08:31:06;;;;;;;15.90;3.83;;;13.00;99.90;;;;;;5099365;28;20117;-90
2021/10/28 08:33:38;;;;;;;14.57;4.82;;;13.10;99.90;;;;;;5110466;28;20064;-89
2021/10/28 08:36:10;;;;;;;11.98;3.95;;;13.10;99.90;;;;;;5092295;28;20040;-89
2021/10/28 08:38:45;;;;;;;14.82;4.90;;;13.10;99.90;;;;;;5099129;28;20835;-91
2021/10/28 08:41:20;;;;;;;22.20;5.57;;;13.20;99.90;;;;;;5116850;28;20051;-89
2021/10/28 08:43:51;;;;;;;16.27;4.55;;;13.20;99.90;;;;;;5081800;28;20055;-89
2021/10/28 08:46:26;;;;;;;17.20;4.93;;;13.30;99.90;;;;;;5109918;28;20048;-89
2021/10/28 08:48:57;;;;;;;9.52;3.75;;;13.30;99.90;;;;;;5113154;28;20039;-90
2021/10/28 08:51:46;;;;;;;13.23;3.60;;;13.30;99.90;;;;;;5118604;28;20046;-89
2021/10/28 09:25:11;;;;;;;15.02;3.10;;;13.70;99.90;;;;;;5105001;28;20067;-87
2021/10/28 09:27:56;;;;;;;9.02;3.17;;;13.90;99.90;;;;;;5090731;28;20051;-86
2021/10/28 09:30:49;;;;;;;26.65;4.10;;;14.00;99.90;;;;;;5090662;28;20184;-89
2021/10/28 09:33:35;;;;;;;7.00;2.50;;;14.00;99.90;;;;;;5109577;28;20522;-87
2021/10/28 09:48:31;;;;;;;15.68;4.28;;;14.00;99.90;;;;;;5092506;28;20047;-87
2021/10/28 09:51:05;;;;;;;16.88;3.05;;;14.00;99.90;;;;;;5110003;28;20036;-88
2021/10/28 09:59:43;;;;;;;10.88;2.78;;;14.20;99.90;;;;;;5112626;28;20054;-87
2021/10/28 10:02:43;;;;;;;10.48;4.50;;;14.20;99.90;;;;;;5109934;28;20051;-86
2021/10/28 10:05:20;;;;;;;8.13;2.60;;;14.30;99.90;;;;;;5096844;28;20067;-86
2021/10/28 10:07:52;;;;;;;8.63;2.17;;;14.20;99.90;;;;;;5079136;28;20219;-87
2021/10/28 10:10:29;;;;;;;8.82;2.72;;;14.20;99.90;;;;;;5113609;28;20394;-87
2021/10/28 10:12:58;;;;;;;7.68;2.70;;;14.20;99.90;;;;;;5097791;28;20054;-86
2021/10/28 10:15:26;;;;;;;5.85;2.42;;;14.30;99.90;;;;;;5092825;28;20047;-90
2021/10/28 10:17:57;;;;;;;17.75;3.47;;;14.30;99.90;;;;;;5101719;28;20059;-88
2021/10/28 10:20:40;;;;;;;9.35;2.45;;;14.30;99.90;;;;;;5117466;28;20498;-87
2021/10/28 10:23:24;;;;;;;14.32;3.00;;;14.40;99.90;;;;;;5121420;28;20043;-89
2021/10/28 11:31:39;;;;;;;12.98;2.67;;;15.50;99.90;;;;;;5116916;28;20044;-89
2021/10/28 12:44:30;;;;;;;7.53;4.20;;;16.10;99.90;;;;;;5089493;28;20044;-89
2021/10/28 12:48:05;;;;;;;9.57;3.35;;;16.30;99.90;;;;;;4994315;22;20063;-89
2021/10/28 12:50:48;;;;;;;16.00;3.40;;;16.20;99.90;;;;;;4961180;28;20055;-84
2021/10/28 13:02:44;;;;;;;6.28;2.72;;;16.40;99.90;;;;;;4953333;28;20051;-83
2021/10/28 13:05:35;;;;;;;11.55;4.07;;;16.50;99.90;;;;;;4960768;29;20055;-84
2021/10/28 13:37:42;;;;;;;8.90;2.17;;;16.20;99.90;;;;;;5061060;28;20518;-83
2021/10/28 13:48:26;;;;;;;9.93;3.00;;;16.50;99.90;;;;;;5060694;28;20060;-87
2021/10/28 13:54:47;;;;;;;8.85;2.03;;;15.30;99.90;;;;;;5062553;28;20041;-83
2021/10/28 14:15:15;;;;;;;4.45;1.65;;;16.30;99.90;;;;;;5057755;28;20053;-84
2021/10/28 14:18:50;;;;;;;3.55;1.58;;;16.30;99.90;;;;;;5042981;28;20049;-84
2021/10/28 14:23:45;;;;;;;5.43;2.08;;;16.30;99.90;;;;;;5059978;28;20053;-85
2021/10/28 14:27:07;;;;;;;7.70;1.67;;;16.20;99.90;;;;;;5068117;28;20060;-84
2021/10/28 15:35:28;;;;;;;9.82;3.42;;;16.10;99.90;;;;;;4987730;28;20449;-85
2021/10/28 15:41:38;;;;;;;8.93;2.95;;;15.90;99.90;;;;;;5060142;28;20049;-83
2021/10/28 15:47:42;;;;;;;7.63;2.67;;;15.80;99.90;;;;;;5065801;28;20063;-83
2021/10/28 15:56:08;;;;;;;10.52;3.63;;;15.80;99.90;;;;;;5083930;28;19920;-83
2021/10/28 16:23:15;;;;;;;15.45;4.55;;;14.70;99.90;;;;;;4831981;29;20441;-88
2021/10/28 16:36:12;;;;;;;16.25;4.20;;;14.40;99.90;;;;;;4939652;28;20222;-84
2021/10/28 16:39:04;;;;;;;13.50;3.38;;;13.20;99.90;;;;;;4991287;28;20081;-82
2021/10/28 16:41:37;;;;;;;12.52;4.82;;;14.20;99.90;;;;;;4985858;28;20061;-80
2021/10/28 16:44:07;;;;;;;14.82;6.50;;;14.20;99.90;;;;;;4992076;28;20046;-82
2021/10/28 16:46:38;;;;;;;21.80;8.23;;;14.10;99.90;;;;;;4981563;28;20070;-79
2021/10/28 16:49:08;;;;;;;21.55;7.53;;;14.10;99.90;;;;;;4992084;28;20046;-83
2021/10/28 16:51:39;;;;;;;16.92;8.25;;;14.00;99.90;;;;;;5003339;28;21048;-82
2021/10/28 16:54:09;;;;;;;23.45;6.50;;;14.00;99.90;;;;;;4985335;28;20221;-84
2021/10/28 16:56:38;;;;;;;11.95;4.57;;;14.00;99.90;;;;;;5008489;28;20057;-82
2021/10/28 16:59:07;;;;;;;16.38;5.60;;;13.90;99.90;;;;;;5043436;28;20045;-81
2021/10/28 17:01:35;;;;;;;12.55;4.00;;;13.90;99.90;;;;;;5036739;28;20045;-83
2021/10/28 17:04:04;;;;;;;8.48;3.85;;;13.90;99.90;;;;;;5040176;28;20049;-81
2021/10/28 17:06:32;;;;;;;12.80;3.88;;;13.80;99.90;;;;;;5039316;28;20095;-81
2021/10/28 17:09:06;;;;;;;11.95;4.40;;;13.80;99.90;;;;;;5042511;28;20167;-81
2021/10/28 17:11:39;;;;;;;9.70;4.10;;;13.80;99.90;;;;;;5050364;28;20048;-81
2021/10/28 17:14:10;;;;;;;9.70;3.25;;;13.70;99.90;;;;;;5038187;28;20044;-81
2021/10/28 17:16:43;;;;;;;10.82;4.85;;;13.70;99.90;;;;;;5055367;28;20053;-80
2021/10/28 17:19:19;;;;;;;9.15;3.78;;;13.70;99.90;;;;;;5053963;28;20060;-82
2021/10/28 17:21:49;;;;;;;13.30;4.75;;;13.60;99.90;;;;;;5063458;28;20042;-80
2021/10/28 17:24:51;;;;;;;11.32;3.67;;;13.60;99.90;;;;;;5056158;28;20059;-80
2021/10/28 17:27:13;;;;;;;14.48;5.43;;;13.60;99.90;;;;;;5040833;28;20037;-81
2021/10/28 17:29:45;;;;;;;8.02;3.25;;;13.60;99.90;;;;;;5060608;28;20049;-81
2021/10/28 17:32:13;;;;;;;16.63;4.35;;;13.60;99.90;;;;;;5032263;28;20235;-80
2021/10/28 17:34:42;;;;;;;5.95;3.38;;;13.50;99.90;;;;;;5047063;28;20045;-80
2021/10/28 17:37:11;;;;;;;11.35;4.18;;;13.50;99.90;;;;;;5064615;28;20049;-81
2021/10/28 17:39:41;;;;;;;11.40;3.47;;;13.50;99.90;;;;;;5045406;28;20065;-80
2021/10/28 17:42:11;;;;;;;12.05;4.22;;;13.50;99.90;;;;;;5063111;28;20041;-80
2021/10/28 17:44:56;;;;;;;12.35;4.40;;;13.40;99.90;;;;;;5044385;28;20037;-80
2021/10/28 17:47:27;;;;;;;11.05;4.07;;;13.40;99.90;;;;;;5048296;28;20217;-80
2021/10/28 17:50:04;;;;;;;11.80;4.07;;;13.40;99.90;;;;;;5078293;28;20056;-82
2021/10/28 17:52:38;;;;;;;11.57;3.83;;;13.40;99.90;;;;;;5048274;28;20057;-80
2021/10/28 17:55:09;;;;;;;9.93;3.30;;;13.40;99.90;;;;;;5052785;28;20053;-82
2021/10/28 17:57:38;;;;;;;7.18;3.58;;;13.40;99.90;;;;;;5051130;28;20044;-81
2021/10/28 18:00:09;;;;;;;16.02;3.55;;;13.40;99.90;;;;;;5036443;28;20050;-83
2021/10/28 18:02:37;;;;;;;12.63;4.32;;;13.30;99.90;;;;;;5056537;28;20053;-82
2021/10/28 18:05:07;;;;;;;14.45;6.25;;;13.40;99.90;;;;;;5043743;28;20054;-81
2021/10/28 18:07:36;;;;;;;27.92;4.90;;;13.30;99.90;;;;;;5047420;28;20052;-82
2021/10/28 18:10:06;;;;;;;10.98;4.40;;;13.30;99.90;;;;;;5051996;28;20179;-79
2021/10/28 18:12:35;;;;;;;10.73;4.70;;;13.30;99.90;;;;;;5068962;28;20487;-81
2021/10/28 18:15:05;;;;;;;11.32;5.40;;;13.30;99.90;;;;;;5073179;28;20045;-80
2021/10/28 18:17:33;;;;;;;13.50;4.57;;;13.30;99.90;;;;;;5065242;28;20050;-81
2021/10/28 18:20:05;;;;;;;10.40;4.45;;;13.30;99.90;;;;;;5051095;28;20048;-80
2021/10/28 18:22:39;;;;;;;11.73;4.28;;;13.20;99.90;;;;;;5060347;28;20454;-80
2021/10/28 18:25:14;;;;;;;10.02;4.85;;;13.20;99.90;;;;;;5078546;28;20055;-79
2021/10/28 18:27:43;;;;;;;11.32;4.72;;;13.20;99.90;;;;;;5075370;28;20042;-80
2021/10/28 18:30:16;;;;;;;13.88;5.65;;;13.10;99.90;;;;;;5046653;28;20053;-80
2021/10/28 18:32:45;;;;;;;11.98;5.30;;;13.20;99.90;;;;;;5067209;28;20057;-83
2021/10/28 18:35:13;;;;;;;13.85;5.13;;;13.10;99.90;;;;;;5061179;28;20128;-80
2021/10/28 18:37:43;;;;;;;13.80;5.97;;;13.10;99.90;;;;;;5064661;28;20053;-83
2021/10/28 18:40:12;;;;;;;7.03;4.03;;;13.20;99.90;;;;;;5055111;28;20056;-81
2021/10/28 18:42:42;;;;;;;10.65;5.13;;;13.10;99.90;;;;;;5071666;28;20053;-82
2021/10/28 18:45:11;;;;;;;8.90;3.95;;;13.10;99.90;;;;;;5055126;28;20041;-80
2021/10/28 18:47:51;;;;;;;9.45;4.60;;;13.10;99.90;;;;;;5052088;28;20055;-80
2021/10/28 18:50:20;;;;;;;8.75;4.03;;;13.20;99.90;;;;;;5053929;28;20045;-81
2021/10/28 18:52:49;;;;;;;13.23;4.28;;;13.10;99.90;;;;;;5046622;28;20054;-81
2021/10/28 18:55:17;;;;;;;14.68;5.22;;;13.20;99.90;;;;;;5061123;28;20048;-83
2021/10/28 18:57:46;;;;;;;10.05;4.57;;;13.20;99.90;;;;;;5082656;28;20045;-81
2021/10/28 19:00:15;;;;;;;12.40;5.65;;;13.20;99.90;;;;;;5060327;28;20041;-80
2021/10/28 19:02:43;;;;;;;15.63;3.88;;;13.20;99.90;;;;;;5057462;28;20057;-80
2021/10/28 19:05:14;;;;;;;14.15;3.95;;;13.20;99.90;;;;;;5049998;28;20053;-81
2021/10/28 19:07:45;;;;;;;12.45;3.75;;;13.10;99.90;;;;;;5070212;28;20135;-81
2021/10/28 19:10:16;;;;;;;18.30;5.72;;;13.10;99.90;;;;;;5022235;28;20048;-81
2021/10/28 19:12:49;;;;;;;11.15;4.35;;;13.10;99.90;;;;;;5054086;28;20057;-83
2021/10/28 19:15:18;;;;;;;17.65;5.40;;;13.10;99.90;;;;;;5068354;28;20045;-79
2021/10/28 19:17:52;;;;;;;11.15;4.28;;;13.10;99.90;;;;;;5078142;28;20056;-84
2021/10/28 19:20:21;;;;;;;20.40;5.00;;;13.10;99.90;;;;;;5049249;28;20045;-81
2021/10/28 19:22:50;;;;;;;11.95;5.15;;;13.10;99.90;;;;;;5047718;28;20033;-83
2021/10/28 19:25:21;;;;;;;11.77;4.53;;;13.10;99.90;;;;;;5051140;28;20043;-80
2021/10/28 19:27:55;;;;;;;13.73;5.80;;;13.10;99.90;;;;;;5054317;28;20052;-81
2021/10/28 19:33:15;;;;;;;10.05;4.68;;;13.10;99.90;;;;;;5056304;28;20049;-82
2021/10/28 19:35:49;;;;;;;16.80;6.03;;;13.10;99.90;;;;;;5044911;28;20510;-81
2021/10/28 19:46:35;;;;;;;12.07;5.50;;;13.10;99.90;;;;;;5038900;28;20067;-79
2021/10/28 19:49:04;;;;;;;12.90;4.35;;;13.00;99.90;;;;;;5056705;28;20049;-82
2021/10/28 19:51:35;;;;;;;11.48;5.50;;;13.10;99.90;;;;;;5050213;28;20046;-81
2021/10/28 19:54:09;;;;;;;20.08;7.82;;;13.10;99.90;;;;;;5072907;28;20045;-81
2021/10/28 19:56:40;;;;;;;9.63;4.78;;;13.10;99.90;;;;;;5043179;28;20049;-82
2021/10/28 19:59:12;;;;;;;24.55;6.10;;;13.00;99.90;;;;;;5061514;28;20034;-85
2021/10/28 20:01:49;;;;;;;12.80;5.85;;;13.10;99.90;;;;;;5064477;28;20052;-82
2021/10/28 20:20:39;;;;;;;12.52;4.68;;;13.20;99.90;;;;;;5062007;28;20050;-80
2021/10/28 20:23:09;;;;;;;11.43;5.85;;;13.20;99.90;;;;;;5044698;28;20052;-81
2021/10/28 20:25:37;;;;;;;23.88;5.82;;;13.20;99.90;;;;;;5037987;28;20046;-81
2021/10/28 20:28:07;;;;;;;12.05;5.65;;;13.20;99.90;;;;;;5045253;28;20060;-81
2021/10/28 20:33:19;;;;;;;11.43;4.67;;;13.30;99.90;;;;;;5063081;28;20048;-82
2021/10/28 20:38:34;;;;;;;13.02;5.82;;;13.30;99.90;;;;;;5038584;28;20056;-81
2021/10/28 20:41:04;;;;;;;10.82;5.82;;;13.30;99.90;;;;;;5046068;28;20067;-81
2021/10/28 20:43:33;;;;;;;21.95;7.78;;;13.30;99.90;;;;;;5056580;28;20505;-82
2021/10/28 20:46:03;;;;;;;17.73;6.30;;;13.30;99.90;;;;;;5066210;28;20155;-84
2021/10/28 20:48:32;;;;;;;19.73;7.63;;;13.30;99.90;;;;;;5035500;28;20678;-82
2021/10/28 20:51:00;;;;;;;22.23;7.75;;;13.30;99.90;;;;;;5056981;28;20294;-84
2021/10/28 20:53:28;;;;;;;16.05;6.90;;;13.40;99.90;;;;;;5046975;28;20040;-83
2021/10/28 20:56:00;;;;;;;15.93;6.80;;;13.40;99.90;;;;;;5041591;28;20041;-84
2021/10/28 20:58:28;;;;;;;;;;;13.40;99.90;;;;;;5058263;28;20037;-82
2021/10/28 21:00:56;;;;;;;31.08;7.65;;;13.40;99.90;;;;;;5058229;28;19921;-83
2021/10/28 21:03:25;;;;;;;21.02;7.10;;;13.40;99.90;;;;;;5057947;28;20057;-83
2021/10/28 21:05:53;;;;;;;21.38;7.38;;;13.40;99.90;;;;;;5060793;28;20057;-82
2021/10/28 21:08:24;;;;;;;14.93;6.00;;;13.40;99.90;;;;;;5056613;28;20040;-82
2021/10/28 21:10:54;;;;;;;21.33;5.93;;;13.40;99.90;;;;;;5047400;28;20039;-83
2021/10/28 21:13:23;;;;;;;12.48;5.75;;;13.40;99.90;;;;;;5041330;28;20060;-82
2021/10/28 21:15:52;;;;;;;16.85;6.43;;;13.40;99.90;;;;;;5069051;28;20045;-82
2021/10/28 21:18:21;;;;;;;19.08;5.55;;;13.40;99.90;;;;;;5046604;28;20045;-81
2021/10/28 21:20:55;;;;;;;18.33;6.32;;;13.50;99.90;;;;;;5060966;28;20056;-81
2021/10/28 21:23:24;;;;;;;22.70;7.53;;;13.50;99.90;;;;;;5068668;28;20052;-81
2021/10/28 21:25:52;;;;;;;16.83;6.15;;;13.50;99.90;;;;;;5052969;28;20211;-81
2021/10/28 21:28:22;;;;;;;16.17;7.38;;;13.50;99.90;;;;;;5033484;28;20045;-81
2021/10/28 21:30:51;;;;;;;20.05;7.60;;;13.50;99.90;;;;;;5066285;28;20045;-82
2021/10/28 21:33:20;;;;;;;25.45;8.02;;;13.50;99.90;;;;;;5067067;28;20038;-81
2021/10/28 21:35:48;;;;;;;16.48;6.78;;;13.40;99.90;;;;;;5037487;28;20049;-82
2021/10/28 21:38:18;;;;;;;17.38;7.60;;;13.50;99.90;;;;;;5074273;28;20060;-81
2021/10/28 21:40:46;;;;;;;24.35;8.15;;;13.50;99.90;;;;;;5042788;28;20042;-81
2021/10/28 21:43:17;;;;;;;18.70;6.57;;;13.50;99.90;;;;;;5054880;28;20037;-82
2021/10/28 21:45:48;;;;;;;14.38;5.78;;;13.60;99.90;;;;;;5042649;28;20057;-81
2021/10/28 21:48:17;;;;;;;17.40;6.70;;;13.60;99.90;;;;;;5056069;28;20098;-80
2021/10/28 21:50:53;;;;;;;18.58;6.55;;;13.70;99.90;;;;;;5056756;28;20056;-82
2021/10/28 21:53:22;;;;;;;11.27;5.10;;;13.60;99.90;;;;;;5045200;28;20050;-82
2021/10/28 21:56:12;;;;;;;22.10;7.38;;;12.60;99.90;;;;;;5073731;28;20046;-82
2021/10/28 22:04:37;;;;;;;22.10;6.05;;;13.60;99.90;;;;;;5052565;28;20048;-81
2021/10/28 22:27:14;;;;;;;15.35;5.65;;;13.80;99.90;;;;;;5057882;28;20067;-80
2021/10/28 22:29:45;;;;;;;16.27;5.95;;;13.80;99.90;;;;;;5060661;28;20053;-80
2021/10/28 22:32:15;;;;;;;23.35;7.38;;;13.70;99.90;;;;;;5071554;28;20042;-81